Time;durP1;ratioP1;P1;durP2;ratioP2;P2;SDS_P1;SDS_P2;PMS_P1;PMS_P2;Temp;Humidity;BMP_temperature;BMP_pressure;BME280_temperature;BME280_humidity;BME280_pressure;Samples;Min_cycle;Max_cycle;Signal;HPM_P1;HPM_P2
2022/04/07 00:01:15;;;;;;;8.38;3.20;;;9.60;99.90;;;;;;5055784;28;20048;-65
2022/04/07 00:03:41;;;;;;;7.78;3.28;;;9.60;99.90;;;;;;5055400;28;20533;-65
2022/04/07 00:06:09;;;;;;;12.00;3.45;;;9.60;99.90;;;;;;5073721;28;20063;-65
2022/04/07 00:08:39;;;;;;;8.50;3.08;;;9.70;99.90;;;;;;5073634;28;20044;-65
2022/04/07 00:11:05;;;;;;;9.68;3.42;;;9.70;99.90;;;;;;5055701;28;20059;-65
2022/04/07 00:13:31;;;;;;;9.02;3.15;;;9.80;99.90;;;;;;5073295;28;20033;-65
2022/04/07 00:15:59;;;;;;;7.80;3.15;;;9.70;99.90;;;;;;5073698;28;20116;-64
2022/04/07 00:18:25;;;;;;;7.50;3.22;;;9.80;99.90;;;;;;5073441;28;20051;-65
2022/04/07 00:20:52;;;;;;;7.40;2.80;;;9.90;99.90;;;;;;5073174;28;20051;-65
2022/04/07 00:23:18;;;;;;;7.07;3.17;;;9.80;99.90;;;;;;5073100;28;20063;-65
2022/04/07 00:25:44;;;;;;;7.22;3.20;;;9.80;99.90;;;;;;5073571;28;20060;-65
2022/04/07 00:28:10;;;;;;;6.80;3.42;;;9.80;99.90;;;;;;5055743;28;20048;-66
2022/04/07 00:30:37;;;;;;;6.05;3.17;;;9.80;99.90;;;;;;5073330;28;20120;-65
2022/04/07 00:33:04;;;;;;;7.47;3.25;;;9.80;99.90;;;;;;5073010;28;20036;-65
2022/04/07 00:35:30;;;;;;;10.95;3.30;;;9.80;99.90;;;;;;5077084;28;20045;-64
2022/04/07 00:37:55;;;;;;;8.75;3.50;;;9.80;99.90;;;;;;5077336;28;20098;-64
2022/04/07 00:40:21;;;;;;;9.45;3.50;;;9.80;99.90;;;;;;5077046;28;20378;-65
2022/04/07 00:42:49;;;;;;;7.03;3.85;;;9.70;99.90;;;;;;5076943;28;20055;-65
2022/04/07 00:45:16;;;;;;;8.88;4.28;;;9.70;99.90;;;;;;5076859;28;20040;-64
2022/04/07 00:47:42;;;;;;;9.43;4.43;;;9.70;99.90;;;;;;5059374;28;20098;-64
2022/04/07 00:50:13;;;;;;;10.07;4.90;;;9.70;99.90;;;;;;5076498;28;20036;-64
2022/04/07 00:52:45;;;;;;;9.88;4.70;;;9.70;99.90;;;;;;5068755;28;20032;-65
2022/04/07 00:55:11;;;;;;;10.57;4.70;;;9.70;99.90;;;;;;5056678;28;20523;-65
2022/04/07 00:57:39;;;;;;;9.88;4.75;;;9.70;99.90;;;;;;5056930;28;20098;-64
2022/04/07 01:00:06;;;;;;;8.85;4.97;;;9.70;99.90;;;;;;5056523;28;20032;-65
2022/04/07 01:02:32;;;;;;;14.05;4.63;;;9.70;99.90;;;;;;5056610;28;20056;-65
2022/04/07 01:04:58;;;;;;;8.65;4.68;;;9.70;99.90;;;;;;5075895;28;20343;-65
2022/04/07 01:07:26;;;;;;;9.15;4.13;;;9.60;99.90;;;;;;5076761;28;20170;-64
2022/04/07 01:09:52;;;;;;;11.85;4.95;;;9.60;99.90;;;;;;5058504;28;20339;-65
2022/04/07 01:12:18;;;;;;;10.35;4.47;;;9.60;99.90;;;;;;5076668;28;20051;-65
2022/04/07 01:14:59;;;;;;;9.60;4.72;;;9.60;99.90;;;;;;5072450;28;20496;-64
2022/04/07 01:17:25;;;;;;;11.98;4.13;;;9.60;99.90;;;;;;5076409;28;20174;-64
2022/04/07 01:19:51;;;;;;;11.70;4.35;;;9.60;99.90;;;;;;5076214;28;20046;-65
2022/04/07 01:22:18;;;;;;;9.77;3.50;;;9.60;99.90;;;;;;5075898;28;20486;-65
2022/04/07 01:24:44;;;;;;;9.48;4.53;;;9.60;99.90;;;;;;5058602;28;20082;-65
2022/04/07 01:27:11;;;;;;;8.30;3.47;;;9.50;99.90;;;;;;5076519;28;20424;-65
2022/04/07 01:29:38;;;;;;;11.63;3.10;;;9.50;99.90;;;;;;5075863;28;20047;-64
2022/04/07 01:32:16;;;;;;;11.00;2.80;;;9.50;99.90;;;;;;5058224;28;20041;-65
2022/04/07 01:34:42;;;;;;;9.45;2.90;;;9.60;99.90;;;;;;5072102;28;20133;-64
2022/04/07 01:37:09;;;;;;;10.95;3.40;;;9.50;99.90;;;;;;5076172;28;20036;-64
2022/04/07 01:39:37;;;;;;;9.95;3.45;;;9.60;99.90;;;;;;5075877;28;20059;-64
2022/04/07 01:42:03;;;;;;;9.43;3.25;;;9.50;99.90;;;;;;5076206;28;20102;-63
2022/04/07 01:44:30;;;;;;;11.77;3.00;;;9.50;99.90;;;;;;5057830;28;20500;-63
2022/04/07 01:46:56;;;;;;;9.75;3.20;;;9.40;99.90;;;;;;5074744;28;20477;-63
2022/04/07 01:49:23;;;;;;;7.95;3.50;;;9.40;99.90;;;;;;5075691;28;20094;-63
2022/04/07 01:51:49;;;;;;;9.27;3.10;;;9.40;99.90;;;;;;5075762;28;20343;-64
2022/04/07 01:54:15;;;;;;;9.80;3.03;;;9.40;99.90;;;;;;5075578;28;20341;-64
2022/04/07 01:56:42;;;;;;;9.77;2.70;;;9.40;99.90;;;;;;5075603;28;20422;-63
2022/04/07 01:59:09;;;;;;;11.85;3.47;;;9.40;99.90;;;;;;5075763;28;20040;-63
2022/04/07 02:01:35;;;;;;;11.82;3.40;;;9.40;99.90;;;;;;5075322;28;20043;-64
2022/04/07 02:04:01;;;;;;;13.45;3.22;;;9.40;99.90;;;;;;5071971;28;20036;-64
2022/04/07 02:06:27;;;;;;;12.60;4.13;;;9.40;99.90;;;;;;5075535;28;20102;-64
2022/04/07 02:08:54;;;;;;;13.40;3.20;;;9.40;99.90;;;;;;5075621;28;20365;-65
2022/04/07 02:11:20;;;;;;;11.90;3.42;;;9.40;99.90;;;;;;5075198;28;20052;-64
2022/04/07 02:13:46;;;;;;;13.15;3.75;;;9.40;99.90;;;;;;5075079;28;20404;-65
2022/04/07 02:16:12;;;;;;;14.40;3.40;;;9.40;99.90;;;;;;5075410;28;20445;-64
2022/04/07 02:18:39;;;;;;;13.23;3.30;;;9.40;99.90;;;;;;5075388;28;20419;-65
2022/04/07 02:21:05;;;;;;;11.60;3.38;;;9.40;99.90;;;;;;5075077;28;20154;-64
2022/04/07 02:23:34;;;;;;;14.30;3.30;;;9.50;99.90;;;;;;5056691;28;20056;-64
2022/04/07 02:26:00;;;;;;;9.77;3.30;;;9.50;99.90;;;;;;5075150;28;20044;-65
2022/04/07 02:28:25;;;;;;;12.32;3.53;;;9.50;99.90;;;;;;5075227;28;20051;-65
2022/04/07 02:30:51;;;;;;;11.88;3.65;;;9.50;99.90;;;;;;5074932;28;20036;-64
2022/04/07 02:33:16;;;;;;;15.45;3.53;;;9.50;99.90;;;;;;5074890;28;20079;-64
2022/04/07 02:35:42;;;;;;;12.23;3.13;;;9.40;99.90;;;;;;5057279;28;20057;-64
2022/04/07 02:38:08;;;;;;;14.35;3.55;;;9.40;99.90;;;;;;5075086;28;20075;-64
2022/04/07 02:40:33;;;;;;;13.55;3.17;;;9.50;99.90;;;;;;5056732;28;20040;-64
2022/04/07 02:42:59;;;;;;;14.60;3.00;;;9.40;99.90;;;;;;5055373;28;20110;-64
2022/04/07 02:45:25;;;;;;;11.10;3.22;;;9.40;99.90;;;;;;5073092;28;20040;-64
2022/04/07 02:47:50;;;;;;;15.18;3.95;;;9.40;99.90;;;;;;5074703;28;20063;-64
2022/04/07 02:50:16;;;;;;;14.60;3.17;;;9.40;99.90;;;;;;5074232;28;20036;-64
2022/04/07 02:52:43;;;;;;;11.20;3.45;;;9.40;99.90;;;;;;5074657;28;20045;-64
2022/04/07 02:55:09;;;;;;;15.82;3.53;;;9.40;99.90;;;;;;5073789;28;20119;-64
2022/04/07 02:57:35;;;;;;;9.98;3.10;;;9.40;99.90;;;;;;5056771;28;20072;-63
2022/04/07 03:00:05;;;;;;;11.40;3.20;;;9.40;99.90;;;;;;5074362;28;20036;-64
2022/04/07 03:02:31;;;;;;;14.05;3.33;;;9.40;99.90;;;;;;5074361;28;20101;-63
2022/04/07 03:04:56;;;;;;;18.00;4.00;;;9.30;99.90;;;;;;5074160;28;20040;-63
2022/04/07 03:07:22;;;;;;;16.35;3.45;;;9.30;99.90;;;;;;5074611;28;20036;-64
2022/04/07 03:09:48;;;;;;;13.27;3.22;;;9.20;99.90;;;;;;5074053;28;20047;-64
2022/04/07 03:12:13;;;;;;;9.52;2.50;;;9.20;99.90;;;;;;5056591;28;20079;-63
2022/04/07 03:14:40;;;;;;;11.15;2.95;;;9.20;99.90;;;;;;5074098;28;20072;-64
2022/04/07 03:17:05;;;;;;;11.40;2.83;;;9.20;99.90;;;;;;5074271;28;20093;-64
2022/04/07 03:19:31;;;;;;;12.45;3.40;;;9.20;99.90;;;;;;5074024;28;20040;-64
2022/04/07 03:21:57;;;;;;;12.70;3.65;;;9.10;99.90;;;;;;5074287;28;20064;-64
2022/04/07 03:24:24;;;;;;;14.10;3.28;;;9.10;99.90;;;;;;5055972;28;20431;-63
2022/04/07 03:26:50;;;;;;;14.18;3.40;;;9.10;99.90;;;;;;5074002;28;20044;-65
2022/04/07 03:29:21;;;;;;;12.35;3.38;;;9.20;99.90;;;;;;5073798;28;20406;-65
2022/04/07 03:31:48;;;;;;;10.93;3.60;;;9.20;99.90;;;;;;5056197;28;20040;-66
2022/04/07 03:34:17;;;;;;;12.98;2.90;;;9.20;99.90;;;;;;5071200;28;20076;-65
2022/04/07 03:36:43;;;;;;;13.77;2.75;;;9.10;99.90;;;;;;5056446;28;20139;-64
2022/04/07 03:39:11;;;;;;;6.57;2.25;;;9.20;99.90;;;;;;5073349;28;20119;-64
2022/04/07 03:41:37;;;;;;;13.73;3.22;;;9.10;99.90;;;;;;5055827;28;20036;-66
2022/04/07 03:44:03;;;;;;;14.02;2.97;;;9.10;99.90;;;;;;5055833;28;20043;-65
2022/04/07 03:46:29;;;;;;;13.02;3.75;;;9.10;99.90;;;;;;5073659;28;20044;-65
2022/04/07 03:48:55;;;;;;;16.70;4.18;;;9.10;99.90;;;;;;5057305;28;20106;-65
2022/04/07 03:51:20;;;;;;;15.23;4.30;;;9.20;99.90;;;;;;5073656;28;20373;-64
2022/04/07 03:53:46;;;;;;;19.23;4.50;;;9.20;99.90;;;;;;5073387;28;20120;-65
2022/04/07 03:56:12;;;;;;;18.27;3.92;;;9.10;99.90;;;;;;5073960;28;20067;-64
2022/04/07 03:58:38;;;;;;;19.55;5.07;;;9.10;99.90;;;;;;5055779;28;20040;-65
2022/04/07 04:01:04;;;;;;;19.67;4.88;;;9.20;99.90;;;;;;5073392;28;20070;-64
2022/04/07 04:03:30;;;;;;;18.00;3.97;;;9.20;99.90;;;;;;5071003;28;20112;-64
2022/04/07 04:05:56;;;;;;;20.13;4.38;;;9.20;99.90;;;;;;5055929;28;20044;-64
2022/04/07 04:08:21;;;;;;;21.75;4.70;;;9.20;99.90;;;;;;5039549;28;20412;-64
2022/04/07 04:10:47;;;;;;;23.77;4.38;;;9.20;99.90;;;;;;5077396;28;20051;-65
2022/04/07 04:13:12;;;;;;;16.95;3.85;;;9.20;99.90;;;;;;5059875;28;20048;-64
2022/04/07 04:15:38;;;;;;;19.77;3.83;;;9.20;99.90;;;;;;5077659;28;20111;-64
2022/04/07 04:18:04;;;;;;;18.38;3.78;;;9.20;99.90;;;;;;5060044;28;20040;-64
2022/04/07 04:20:30;;;;;;;17.25;4.47;;;9.20;99.90;;;;;;5077195;28;20119;-64
2022/04/07 04:22:56;;;;;;;20.80;4.53;;;9.20;99.90;;;;;;5077106;28;20131;-64
2022/04/07 04:25:22;;;;;;;21.25;4.13;;;9.20;99.90;;;;;;5077557;28;20041;-64
2022/04/07 04:27:48;;;;;;;14.88;4.13;;;9.20;99.90;;;;;;5077574;28;20041;-64
2022/04/07 04:30:14;;;;;;;21.65;4.57;;;9.30;99.90;;;;;;5059232;28;20369;-64
2022/04/07 04:32:41;;;;;;;22.75;4.38;;;9.20;99.90;;;;;;5077128;28;20044;-64
2022/04/07 04:35:08;;;;;;;17.98;4.05;;;9.20;99.90;;;;;;5076520;28;20539;-64
2022/04/07 04:37:33;;;;;;;17.20;4.45;;;9.20;99.90;;;;;;5077246;28;20365;-62
2022/04/07 04:39:59;;;;;;;18.75;4.45;;;9.20;99.90;;;;;;5059375;28;20060;-63
2022/04/07 04:42:25;;;;;;;17.80;3.90;;;9.10;99.90;;;;;;5076962;28;20043;-62
2022/04/07 04:44:50;;;;;;;24.50;4.82;;;9.10;99.90;;;;;;5076865;28;20044;-63
2022/04/07 04:47:18;;;;;;;19.45;4.20;;;9.10;99.90;;;;;;5076714;28;20028;-62
2022/04/07 04:49:43;;;;;;;19.88;3.70;;;9.10;99.90;;;;;;5075938;28;20484;-62
2022/04/07 04:52:09;;;;;;;25.67;4.75;;;9.10;99.90;;;;;;5076460;28;20036;-62
2022/04/07 04:54:35;;;;;;;19.60;4.68;;;9.10;99.90;;;;;;5058229;28;20076;-62
2022/04/07 04:57:01;;;;;;;23.50;4.60;;;9.00;99.90;;;;;;5060508;28;20080;-62
2022/04/07 04:59:27;;;;;;;19.05;4.32;;;9.00;99.90;;;;;;5038759;28;20045;-63
2022/04/07 05:01:53;;;;;;;17.48;4.53;;;9.00;99.90;;;;;;5069584;28;20048;-62
2022/04/07 05:04:19;;;;;;;15.40;4.20;;;9.00;99.90;;;;;;5073323;28;20024;-62
2022/04/07 05:06:44;;;;;;;15.55;3.80;;;9.00;99.90;;;;;;5074972;28;20046;-63
2022/04/07 05:09:10;;;;;;;16.45;4.65;;;9.00;99.90;;;;;;5075815;28;20115;-62
2022/04/07 05:11:36;;;;;;;15.07;4.20;;;8.90;99.90;;;;;;5070247;28;20116;-62
2022/04/07 05:14:02;;;;;;;14.75;4.97;;;8.90;99.90;;;;;;5074806;28;20404;-63
2022/04/07 05:16:28;;;;;;;18.75;4.80;;;8.90;99.90;;;;;;5067520;28;20041;-63
2022/04/07 05:18:55;;;;;;;15.77;4.78;;;9.00;99.90;;;;;;5071718;28;20158;-62
2022/04/07 05:21:22;;;;;;;12.65;4.57;;;9.00;99.90;;;;;;5064572;28;20040;-62
2022/04/07 05:23:47;;;;;;;17.20;4.85;;;9.10;99.90;;;;;;5068690;28;20053;-63
2022/04/07 05:26:13;;;;;;;12.63;4.65;;;9.00;99.90;;;;;;5056006;28;20455;-63
2022/04/07 05:28:39;;;;;;;12.00;4.75;;;9.00;99.90;;;;;;5056583;28;20116;-62
2022/04/07 05:31:05;;;;;;;15.82;4.90;;;9.00;99.90;;;;;;5065061;28;20075;-62
2022/04/07 05:33:31;;;;;;;15.30;4.90;;;9.00;99.90;;;;;;5058427;28;20036;-61
2022/04/07 05:35:57;;;;;;;3.88;1.52;;;9.00;99.90;;;;;;5076537;28;20040;-60
2022/04/07 05:38:23;;;;;;;7.43;1.98;;;8.10;99.90;;;;;;5076008;28;20112;-61
2022/04/07 05:40:48;;;;;;;13.35;2.90;;;6.60;99.90;;;;;;5076531;28;20366;-61
2022/04/07 05:43:14;;;;;;;3.90;1.30;;;5.90;99.90;;;;;;5076183;28;20090;-61
2022/04/07 05:45:44;;;;;;;7.10;1.90;;;5.70;99.90;;;;;;5054403;28;20047;-61
2022/04/07 05:48:10;;;;;;;5.05;1.42;;;5.70;99.90;;;;;;5073490;28;20182;-62
2022/04/07 05:50:36;;;;;;;3.58;1.55;;;5.70;99.90;;;;;;5058074;28;20044;-62
2022/04/07 05:53:02;;;;;;;4.53;1.23;;;5.60;99.90;;;;;;5055899;28;20139;-64
2022/04/07 05:55:27;;;;;;;5.03;1.50;;;5.60;99.90;;;;;;5068476;28;20479;-63
2022/04/07 05:57:54;;;;;;;4.55;1.40;;;5.60;99.90;;;;;;5076009;28;20093;-63
2022/04/07 06:00:20;;;;;;;4.68;1.20;;;5.70;99.90;;;;;;5075928;28;20060;-63
2022/04/07 06:02:47;;;;;;;6.50;1.60;;;5.70;99.90;;;;;;5075484;28;20040;-61
2022/04/07 06:05:18;;;;;;;10.25;2.10;;;5.70;99.90;;;;;;5075651;28;20480;-61
2022/04/07 06:07:44;;;;;;;9.52;2.75;;;5.70;99.90;;;;;;5057879;28;20032;-61
2022/04/07 06:10:10;;;;;;;9.60;2.75;;;5.70;99.90;;;;;;5055980;28;20465;-62
2022/04/07 06:12:36;;;;;;;7.93;2.00;;;5.80;99.90;;;;;;5038408;28;20505;-62
2022/04/07 06:15:01;;;;;;;6.60;1.50;;;5.80;99.90;;;;;;5055829;28;20043;-61
2022/04/07 06:17:34;;;;;;;9.35;1.98;;;5.70;99.90;;;;;;5043966;28;20041;-60
2022/04/07 06:20:00;;;;;;;8.68;1.58;;;5.70;99.90;;;;;;5070434;28;20061;-61
2022/04/07 06:22:26;;;;;;;8.02;2.08;;;5.70;99.90;;;;;;5064065;28;20080;-62
2022/04/07 06:24:51;;;;;;;9.15;2.22;;;5.80;99.90;;;;;;5069131;28;20141;-61
2022/04/07 06:27:17;;;;;;;7.18;1.70;;;5.70;99.90;;;;;;5069308;28;20401;-62
2022/04/07 06:29:42;;;;;;;10.40;2.22;;;5.70;99.90;;;;;;5049048;28;20048;-62
2022/04/07 06:32:08;;;;;;;11.88;2.53;;;5.80;99.90;;;;;;5059524;28;20024;-61
2022/04/07 06:34:34;;;;;;;13.93;3.42;;;5.80;99.90;;;;;;5066819;28;20052;-62
2022/04/07 06:37:00;;;;;;;6.80;1.70;;;5.70;99.90;;;;;;5064238;28;20044;-61
2022/04/07 06:39:26;;;;;;;5.70;1.75;;;5.70;99.90;;;;;;5063687;28;20044;-61
2022/04/07 06:41:52;;;;;;;7.28;1.83;;;5.70;99.90;;;;;;5063520;28;20032;-61
2022/04/07 06:44:19;;;;;;;4.57;1.30;;;5.70;99.90;;;;;;5045738;28;20037;-62
2022/04/07 06:46:45;;;;;;;3.30;1.30;;;5.70;99.90;;;;;;5062464;28;20068;-61
2022/04/07 06:49:11;;;;;;;3.67;0.95;;;5.80;99.90;;;;;;5065486;28;20032;-61
2022/04/07 06:51:36;;;;;;;3.35;1.40;;;5.80;99.90;;;;;;5062854;28;20041;-61
2022/04/07 06:54:02;;;;;;;4.47;1.20;;;5.80;99.90;;;;;;5060001;28;20082;-60
2022/04/07 06:56:28;;;;;;;6.60;1.27;;;5.80;99.90;;;;;;5043952;28;20446;-62
2022/04/07 06:58:56;;;;;;;4.75;1.42;;;5.80;99.90;;;;;;5050072;28;20365;-61
2022/04/07 07:01:22;;;;;;;4.70;1.30;;;5.90;99.90;;;;;;5068688;28;20040;-61
2022/04/07 07:03:48;;;;;;;7.10;1.40;;;5.90;99.90;;;;;;5074528;28;20343;-61
2022/04/07 07:06:13;;;;;;;5.55;1.75;;;5.90;99.90;;;;;;5074779;28;20476;-61
2022/04/07 07:08:40;;;;;;;6.60;1.42;;;5.90;99.90;;;;;;5056808;28;20032;-61
2022/04/07 07:11:06;;;;;;;6.25;1.42;;;5.90;99.90;;;;;;5074116;28;20044;-62
2022/04/07 07:13:33;;;;;;;5.60;1.52;;;5.90;99.90;;;;;;5072642;28;20047;-61
2022/04/07 07:15:58;;;;;;;5.93;1.40;;;5.80;99.90;;;;;;5061968;28;20048;-62
2022/04/07 07:18:24;;;;;;;5.22;1.33;;;5.90;99.90;;;;;;5062322;28;20048;-61
2022/04/07 07:20:50;;;;;;;4.35;1.33;;;5.90;99.90;;;;;;5053660;28;20052;-62
2022/04/07 07:23:16;;;;;;;7.45;1.58;;;5.80;99.90;;;;;;5058988;28;20072;-63
2022/04/07 07:25:41;;;;;;;6.50;1.23;;;5.90;99.90;;;;;;5074104;28;20078;-62
2022/04/07 07:28:09;;;;;;;5.35;1.20;;;5.80;99.90;;;;;;5073819;28;20097;-63
2022/04/07 07:30:35;;;;;;;6.30;1.45;;;5.90;99.90;;;;;;5073941;28;20120;-63
2022/04/07 07:33:02;;;;;;;4.63;1.38;;;5.90;99.90;;;;;;5073402;28;20409;-62
2022/04/07 07:35:27;;;;;;;4.25;1.40;;;5.90;99.90;;;;;;5073572;28;20051;-62
2022/04/07 07:37:58;;;;;;;5.68;1.30;;;6.00;99.90;;;;;;5056324;28;20036;-62
2022/04/07 07:40:28;;;;;;;3.65;1.50;;;6.00;99.90;;;;;;5055589;28;20040;-63
2022/04/07 07:42:56;;;;;;;5.22;1.42;;;6.20;99.90;;;;;;5073104;28;20052;-62
2022/04/07 07:45:25;;;;;;;3.58;0.93;;;6.20;99.90;;;;;;5073206;28;20052;-62
2022/04/07 07:47:53;;;;;;;4.15;1.10;;;6.20;99.90;;;;;;5073803;28;20040;-62
2022/04/07 07:50:19;;;;;;;4.32;1.05;;;6.30;99.90;;;;;;5073679;28;20358;-63
2022/04/07 07:52:44;;;;;;;4.80;1.05;;;6.30;99.90;;;;;;5073250;28;20338;-62
2022/04/07 07:55:10;;;;;;;4.35;1.23;;;6.30;99.90;;;;;;5073072;28;20052;-62
2022/04/07 07:57:36;;;;;;;6.75;1.17;;;6.30;99.90;;;;;;5073558;28;20040;-64
2022/04/07 08:00:03;;;;;;;5.47;1.30;;;6.40;99.90;;;;;;5073602;28;20047;-63
2022/04/07 08:02:30;;;;;;;3.85;1.10;;;6.40;99.90;;;;;;5073094;28;20036;-63
2022/04/07 08:04:56;;;;;;;6.25;1.17;;;6.50;99.90;;;;;;5073520;28;20057;-63
2022/04/07 08:07:23;;;;;;;5.43;1.10;;;6.60;99.90;;;;;;5055510;28;20045;-62
2022/04/07 08:09:49;;;;;;;2.40;0.80;;;6.60;99.90;;;;;;5073616;28;20075;-64
2022/04/07 08:12:14;;;;;;;5.43;1.25;;;6.70;99.90;;;;;;5055381;28;20477;-63
2022/04/07 08:14:40;;;;;;;5.55;1.13;;;6.70;99.90;;;;;;5055039;28;20048;-63
2022/04/07 08:17:06;;;;;;;3.95;1.00;;;6.80;99.90;;;;;;5076910;28;20082;-62
2022/04/07 08:19:31;;;;;;;4.03;1.13;;;6.80;99.90;;;;;;5073328;28;20036;-63
2022/04/07 08:21:57;;;;;;;2.55;1.00;;;6.90;99.90;;;;;;5072874;28;20416;-63
2022/04/07 08:24:23;;;;;;;3.13;0.90;;;6.90;99.90;;;;;;5072113;28;20090;-62
2022/04/07 08:26:49;;;;;;;4.05;1.27;;;7.00;99.90;;;;;;5073075;28;20367;-63
2022/04/07 08:29:14;;;;;;;3.60;1.00;;;7.10;99.90;;;;;;5073148;28;20110;-63
2022/04/07 08:31:40;;;;;;;4.78;1.20;;;7.20;99.90;;;;;;5054563;28;20036;-62
2022/04/07 08:34:06;;;;;;;3.03;1.02;;;7.20;99.90;;;;;;5065547;28;20059;-62
2022/04/07 08:36:31;;;;;;;5.63;1.25;;;7.20;99.90;;;;;;5053008;28;20073;-62
2022/04/07 08:38:57;;;;;;;5.40;1.25;;;7.30;99.90;;;;;;5052974;28;20469;-62
2022/04/07 08:41:31;;;;;;;6.50;1.77;;;7.50;99.90;;;;;;5052599;28;20076;-62
2022/04/07 08:43:58;;;;;;;4.40;1.00;;;7.70;99.90;;;;;;5059337;28;20470;-63
2022/04/07 08:46:25;;;;;;;3.53;1.00;;;7.90;99.90;;;;;;5072751;28;20102;-62
2022/04/07 08:48:50;;;;;;;4.60;1.08;;;8.10;99.90;;;;;;5055250;28;20048;-63
2022/04/07 08:51:17;;;;;;;4.60;0.98;;;8.20;99.90;;;;;;5072696;28;20063;-63
2022/04/07 08:53:43;;;;;;;2.60;0.95;;;8.40;99.90;;;;;;5072478;28;20488;-63
2022/04/07 08:56:10;;;;;;;5.40;0.90;;;8.60;99.90;;;;;;5075860;28;20037;-63
2022/04/07 08:58:36;;;;;;;4.05;1.10;;;8.70;99.90;;;;;;5076536;28;20124;-63
2022/04/07 09:01:02;;;;;;;7.30;1.42;;;8.80;99.90;;;;;;5075982;28;20123;-63
2022/04/07 09:03:28;;;;;;;6.55;1.30;;;8.90;99.90;;;;;;5075738;28;20330;-64
2022/04/07 09:05:59;;;;;;;5.50;1.13;;;9.00;99.90;;;;;;5076277;28;20040;-63
2022/04/07 09:08:33;;;;;;;8.05;1.50;;;9.10;99.90;;;;;;5076361;28;20397;-63
2022/04/07 09:11:00;;;;;;;12.10;1.67;;;9.20;99.90;;;;;;5075609;28;20343;-64
2022/04/07 09:13:39;;;;;;;7.25;1.70;;;9.30;99.90;;;;;;5057484;28;20048;-63
2022/04/07 09:16:12;;;;;;;3.80;1.30;;;9.30;99.90;;;;;;5075925;28;20392;-63
2022/04/07 09:18:40;;;;;;;5.97;1.48;;;9.50;99.90;;;;;;5076221;28;20119;-64
2022/04/07 09:21:07;;;;;;;8.18;1.67;;;9.60;99.90;;;;;;5075720;28;20102;-63
2022/04/07 09:23:40;;;;;;;10.15;1.70;;;9.70;99.90;;;;;;5074914;28;20075;-63
2022/04/07 09:26:11;;;;;;;5.82;1.50;;;9.90;99.90;;;;;;5062702;28;20037;-63
2022/04/07 09:28:37;;;;;;;10.07;1.60;;;10.10;99.90;;;;;;5055966;28;20088;-63
2022/04/07 09:31:02;;;;;;;5.72;1.52;;;10.10;99.90;;;;;;5055369;28;20442;-65
2022/04/07 09:33:29;;;;;;;8.50;2.00;;;10.10;99.90;;;;;;5040104;28;20051;-63
2022/04/07 09:36:06;;;;;;;4.53;1.30;;;10.10;99.90;;;;;;5055797;28;20120;-64
2022/04/07 09:38:34;;;;;;;7.97;1.88;;;10.20;99.90;;;;;;5055866;28;20045;-63
2022/04/07 09:41:21;;;;;;;7.45;2.30;;;10.20;99.90;;;;;;5055463;28;20345;-64
2022/04/07 09:43:53;;;;;;;9.60;2.17;;;10.30;99.90;;;;;;5060897;28;20040;-64
2022/04/07 09:46:21;;;;;;;7.38;1.77;;;10.30;99.90;;;;;;5075758;28;20080;-64
2022/04/07 09:49:09;;;;;;;8.35;1.63;;;10.40;99.90;;;;;;5075686;28;20533;-63
2022/04/07 09:51:46;;;;;;;9.40;2.20;;;10.50;99.90;;;;;;5075197;28;20041;-64
2022/04/07 09:54:15;;;;;;;6.60;1.75;;;10.50;99.90;;;;;;5075154;28;20115;-63
2022/04/07 09:56:42;;;;;;;12.10;2.33;;;10.50;99.90;;;;;;5049649;28;20102;-63
2022/04/07 09:59:09;;;;;;;13.40;2.47;;;10.40;99.90;;;;;;5075044;28;20377;-62
2022/04/07 10:01:38;;;;;;;10.30;2.30;;;10.40;99.90;;;;;;5057153;28;20151;-64
2022/04/07 10:04:05;;;;;;;13.32;2.70;;;10.30;99.90;;;;;;5040482;28;20041;-63
2022/04/07 10:06:36;;;;;;;8.40;1.83;;;10.20;99.90;;;;;;5074193;28;20370;-63
2022/04/07 10:09:07;;;;;;;11.73;2.40;;;10.30;99.90;;;;;;5057140;28;20052;-64
2022/04/07 10:11:33;;;;;;;13.18;2.47;;;10.30;99.90;;;;;;5074893;28;20036;-64
2022/04/07 10:13:59;;;;;;;14.00;2.95;;;10.30;99.90;;;;;;5069156;28;20033;-63
2022/04/07 10:16:25;;;;;;;16.05;2.67;;;10.30;99.90;;;;;;5073221;28;20462;-64
2022/04/07 10:19:03;;;;;;;12.77;2.88;;;10.30;99.90;;;;;;5054131;28;20045;-65
2022/04/07 10:21:46;;;;;;;13.65;3.55;;;10.20;99.90;;;;;;5054593;28;20036;-63
2022/04/07 10:24:35;;;;;;;14.65;3.00;;;10.30;99.90;;;;;;5062046;28;20402;-63
2022/04/07 10:27:09;;;;;;;12.60;3.45;;;10.30;99.90;;;;;;5057108;28;20135;-64
2022/04/07 10:29:37;;;;;;;12.05;2.45;;;10.40;99.90;;;;;;5074924;28;20135;-64
2022/04/07 10:32:23;;;;;;;16.73;3.00;;;10.30;99.90;;;;;;5074471;28;20063;-63
2022/04/07 10:34:59;;;;;;;10.00;2.95;;;10.30;99.90;;;;;;5074095;28;20103;-64
2022/04/07 10:37:41;;;;;;;10.68;2.53;;;10.40;99.90;;;;;;5074652;28;20094;-64
2022/04/07 10:40:44;;;;;;;14.20;3.03;;;10.30;99.90;;;;;;5057160;28;20058;-63
2022/04/07 10:43:14;;;;;;;12.68;2.53;;;10.40;99.90;;;;;;5056791;28;20044;-64
2022/04/07 10:45:48;;;;;;;11.98;2.80;;;10.40;99.90;;;;;;5056283;28;20040;-64
2022/04/07 10:48:26;;;;;;;16.17;3.00;;;10.50;99.90;;;;;;5056521;28;20346;-64
2022/04/07 10:50:59;;;;;;;7.18;2.17;;;10.40;99.90;;;;;;5056615;28;20063;-64
2022/04/07 10:53:27;;;;;;;10.05;2.40;;;10.50;99.90;;;;;;5073173;28;20040;-64
2022/04/07 10:56:24;;;;;;;14.98;2.78;;;10.30;99.90;;;;;;5053153;28;20045;-64
2022/04/07 10:58:54;;;;;;;11.73;2.33;;;10.30;99.90;;;;;;5053517;28;20041;-64
2022/04/07 11:01:40;;;;;;;9.82;2.40;;;10.30;99.90;;;;;;5071339;28;20480;-64
2022/04/07 11:04:18;;;;;;;15.05;3.33;;;10.00;99.90;;;;;;5042397;28;20378;-63
2022/04/07 11:09:49;;;;;;;14.32;2.88;;;9.70;99.90;;;;;;5036441;28;20106;-65
2022/04/07 11:12:19;;;;;;;15.02;2.97;;;9.80;99.90;;;;;;5036119;28;20049;-64
2022/04/07 11:14:46;;;;;;;15.73;2.83;;;9.90;99.90;;;;;;5066356;28;20033;-66
2022/04/07 11:17:25;;;;;;;15.38;2.90;;;9.80;99.90;;;;;;5073674;28;20743;-64
2022/04/07 11:19:55;;;;;;;15.35;2.53;;;9.90;99.90;;;;;;5073623;28;20343;-65
2022/04/07 11:22:44;;;;;;;16.02;2.78;;;10.00;99.90;;;;;;5055886;28;20051;-65
2022/04/07 11:25:13;;;;;;;12.50;2.67;;;10.00;99.90;;;;;;5055296;28;20052;-64
2022/04/07 11:27:42;;;;;;;15.57;3.17;;;10.20;99.90;;;;;;5055341;28;20044;-64
2022/04/07 11:30:09;;;;;;;16.92;2.92;;;10.30;99.90;;;;;;5053991;28;20104;-64
2022/04/07 11:32:36;;;;;;;11.88;3.20;;;10.30;99.90;;;;;;5053376;28;20078;-65
2022/04/07 11:35:15;;;;;;;14.43;3.40;;;10.40;99.90;;;;;;5033869;28;20059;-64
2022/04/07 11:37:44;;;;;;;19.52;3.15;;;10.60;99.90;;;;;;5073867;28;20101;-64
2022/04/07 11:40:10;;;;;;;15.68;3.45;;;10.60;99.90;;;;;;5055882;28;20051;-65
2022/04/07 11:42:37;;;;;;;15.02;3.03;;;10.60;99.90;;;;;;5073208;28;20223;-64
2022/04/07 11:45:03;;;;;;;15.10;2.95;;;10.60;99.90;;;;;;5055354;28;20055;-65
2022/04/07 11:47:37;;;;;;;15.25;2.55;;;10.70;99.90;;;;;;5055624;28;20047;-64
2022/04/07 11:50:05;;;;;;;16.50;3.37;;;10.80;99.90;;;;;;5073630;28;20047;-64
2022/04/07 11:52:34;;;;;;;10.25;2.35;;;10.80;99.90;;;;;;5056516;28;20051;-65
2022/04/07 11:55:02;;;;;;;10.35;2.50;;;10.80;99.90;;;;;;5073272;28;20047;-65
2022/04/07 11:57:29;;;;;;;13.18;2.72;;;10.90;99.90;;;;;;5073269;28;20055;-65
2022/04/07 11:59:56;;;;;;;14.35;3.08;;;10.90;99.90;;;;;;5055638;28;20052;-65
2022/04/07 12:02:23;;;;;;;15.95;3.03;;;10.90;99.90;;;;;;5072938;28;20119;-65
2022/04/07 12:05:01;;;;;;;17.67;3.58;;;10.90;99.90;;;;;;5055483;28;20129;-66
2022/04/07 12:07:28;;;;;;;13.05;2.95;;;10.90;99.90;;;;;;5036605;28;20052;-65
2022/04/07 12:09:57;;;;;;;12.18;2.95;;;10.90;99.90;;;;;;5053575;28;20087;-66
2022/04/07 12:12:24;;;;;;;14.18;2.60;;;11.00;99.90;;;;;;5053224;28;20033;-66
2022/04/07 12:14:52;;;;;;;15.13;2.88;;;11.10;99.90;;;;;;5066035;28;20044;-65
2022/04/07 12:17:18;;;;;;;8.95;2.33;;;11.20;99.90;;;;;;5055830;28;20044;-66
2022/04/07 12:19:47;;;;;;;8.75;2.38;;;11.20;99.90;;;;;;5054481;28;20036;-66
2022/04/07 12:22:14;;;;;;;9.85;2.97;;;11.30;99.90;;;;;;5052774;28;20048;-66
2022/04/07 12:25:03;;;;;;;12.05;2.50;;;11.30;99.90;;;;;;5064514;28;20359;-65
2022/04/07 12:27:31;;;;;;;7.13;1.80;;;11.30;99.90;;;;;;5073129;28;20557;-65
2022/04/07 12:29:59;;;;;;;13.05;2.92;;;11.40;99.90;;;;;;5056921;28;20403;-65
2022/04/07 12:32:25;;;;;;;15.20;3.08;;;11.50;99.90;;;;;;5076674;28;20051;-66
2022/04/07 12:34:56;;;;;;;12.38;2.75;;;11.60;99.90;;;;;;5059272;28;20055;-66
2022/04/07 12:37:33;;;;;;;9.43;3.22;;;11.70;99.90;;;;;;5077206;28;20048;-66
2022/04/07 12:39:59;;;;;;;10.68;2.28;;;11.60;99.90;;;;;;5076996;28;20044;-66
2022/04/07 12:42:25;;;;;;;9.85;2.47;;;11.50;99.90;;;;;;5076625;28;20055;-65
2022/04/07 12:45:03;;;;;;;11.27;2.33;;;11.40;99.90;;;;;;5076537;28;20044;-65
2022/04/07 12:47:29;;;;;;;11.85;2.75;;;11.40;99.90;;;;;;5076906;28;20055;-67
2022/04/07 12:49:58;;;;;;;11.60;2.30;;;11.40;99.90;;;;;;5076952;28;20434;-65
2022/04/07 12:52:40;;;;;;;11.50;2.58;;;11.20;99.90;;;;;;5076287;28;20074;-66
2022/04/07 12:55:11;;;;;;;7.47;1.95;;;11.20;99.90;;;;;;5058324;28;20395;-65